Time;durP1;ratioP1;P1;durP2;ratioP2;P2;SDS_P1;SDS_P2;PMS_P1;PMS_P2;Temp;Humidity;BMP_temperature;BMP_pressure;BME280_temperature;BME280_humidity;BME280_pressure;Samples;Min_cycle;Max_cycle;Signal;HPM_P1;HPM_P2
2022/11/29 00:00:32;;;;;;;;;;;16.20;89.50;;;;;;5092232;28;19931;-94
2022/11/29 00:02:58;;;;;;;;;;;16.20;89.50;;;;;;5092442;28;19975;-94
2022/11/29 00:05:27;;;;;;;;;;;16.20;89.50;;;;;;5088366;28;19908;-93
2022/11/29 00:07:52;;;;;;;;;;;16.10;89.60;;;;;;5074158;28;19908;-93
2022/11/29 00:10:21;;;;;;;;;;;16.10;89.60;;;;;;5084371;28;20007;-93
2022/11/29 00:12:47;;;;;;;;;;;16.10;89.60;;;;;;5085577;28;19920;-93
2022/11/29 00:15:13;;;;;;;;;;;16.10;89.80;;;;;;5086200;28;19961;-94
2022/11/29 00:17:51;;;;;;;;;;;16.10;89.90;;;;;;5085048;28;19908;-94
2022/11/29 00:20:16;;;;;;;;;;;16.10;89.90;;;;;;5085913;28;19931;-94
2022/11/29 00:22:42;;;;;;;;;;;16.10;89.90;;;;;;5091103;28;20235;-94
2022/11/29 00:25:14;;;;;;;;;;;16.10;90.00;;;;;;5092081;28;19919;-93
2022/11/29 00:27:42;;;;;;;;;;;16.10;90.00;;;;;;5090280;28;19912;-94
2022/11/29 00:30:08;;;;;;;;;;;16.10;90.00;;;;;;5094273;28;19908;-93
2022/11/29 00:32:38;;;;;;;;;;;16.10;90.00;;;;;;5091236;28;20175;-94
2022/11/29 00:35:04;;;;;;;;;;;16.10;90.00;;;;;;5090162;28;20307;-94
2022/11/29 00:37:29;;;;;;;;;;;16.10;90.10;;;;;;5088695;28;19908;-93
2022/11/29 00:39:55;;;;;;;;;;;16.10;90.10;;;;;;5089080;28;19908;-93
2022/11/29 00:42:20;;;;;;;;;;;16.10;90.10;;;;;;5091348;28;19927;-94
2022/11/29 00:44:46;;;;;;;;;;;16.10;90.10;;;;;;5092459;28;20248;-94
2022/11/29 00:47:17;;;;;;;;;;;16.10;90.10;;;;;;5093876;28;19919;-94
2022/11/29 00:49:43;;;;;;;;;;;16.10;90.20;;;;;;5089170;28;19939;-94
2022/11/29 00:52:10;;;;;;;;;;;16.10;90.20;;;;;;5084997;28;19939;-93
2022/11/29 00:54:36;;;;;;;;;;;16.10;90.20;;;;;;5084144;28;19942;-93
2022/11/29 00:57:04;;;;;;;;;;;16.10;90.20;;;;;;5084257;28;19999;-93
2022/11/29 00:59:33;;;;;;;;;;;16.10;90.30;;;;;;5083090;28;19908;-93
2022/11/29 01:01:58;;;;;;;;;;;16.10;90.30;;;;;;5083607;28;19938;-94
2022/11/29 01:04:27;;;;;;;;;;;16.10;90.30;;;;;;5088360;28;20110;-94
2022/11/29 01:06:56;;;;;;;;;;;16.10;90.40;;;;;;5092028;28;19908;-94
2022/11/29 01:09:30;;;;;;;;;;;16.10;90.40;;;;;;5091853;28;19919;-94
2022/11/29 01:12:05;;;;;;;;;;;16.10;90.40;;;;;;5086677;28;19908;-94
2022/11/29 01:14:37;;;;;;;;;;;16.10;90.40;;;;;;5086333;28;19961;-93
2022/11/29 01:17:02;;;;;;;;;;;16.10;90.40;;;;;;5086010;28;19912;-93
2022/11/29 01:19:28;;;;;;;;;;;16.10;90.40;;;;;;5086265;28;19908;-93
2022/11/29 01:21:54;;;;;;;;;;;16.10;90.50;;;;;;5091091;28;19919;-94
2022/11/29 01:24:21;;;;;;;;;;;16.10;90.50;;;;;;5091879;28;19930;-94
2022/11/29 01:26:46;;;;;;;;;;;16.10;90.50;;;;;;5094771;28;19916;-94
2022/11/29 01:32:15;;;;;;;;;;;16.10;90.60;;;;;;5107919;28;19935;-93
2022/11/29 01:41:16;;;;;;;;;;;16.10;90.60;;;;;;5106746;28;19930;-94
2022/11/29 01:44:02;;;;;;;;;;;16.10;90.70;;;;;;5082329;28;19912;-93
2022/11/29 01:46:47;;;;;;;;;;;16.10;90.70;;;;;;5089516;28;19908;-94
2022/11/29 01:49:12;;;;;;;;;;;16.10;90.70;;;;;;5090145;28;19909;-94
2022/11/29 01:51:43;;;;;;;;;;;16.10;90.70;;;;;;5109348;28;19919;-94
2022/11/29 01:54:12;;;;;;;;;;;16.10;90.70;;;;;;5092968;28;19935;-94
2022/11/29 01:56:42;;;;;;;;;;;16.10;90.80;;;;;;5090395;28;19973;-93
2022/11/29 01:59:16;;;;;;;;;;;16.10;90.80;;;;;;5090443;28;20007;-93
2022/11/29 02:04:40;;;;;;;;;;;16.10;90.80;;;;;;5086073;28;19912;-93
2022/11/29 02:07:17;;;;;;;;;;;16.10;90.90;;;;;;5075623;28;19908;-93
2022/11/29 02:09:49;;;;;;;;;;;16.10;90.80;;;;;;5080927;28;19943;-93
2022/11/29 02:12:20;;;;;;;;;;;16.10;90.90;;;;;;5085720;28;19908;-93
2022/11/29 02:15:06;;;;;;;;;;;16.10;90.90;;;;;;5083703;28;19999;-93
2022/11/29 02:17:37;;;;;;;;;;;16.10;90.90;;;;;;5086284;28;20266;-93
2022/11/29 02:20:22;;;;;;;;;;;16.10;90.90;;;;;;5102957;28;19926;-94
2022/11/29 02:22:53;;;;;;;;;;;16.10;90.90;;;;;;5084646;28;20290;-93
2022/11/29 02:25:26;;;;;;;;;;;16.10;91.00;;;;;;5102804;28;19971;-94
2022/11/29 02:28:10;;;;;;;;;;;16.00;91.00;;;;;;5085825;28;19940;-93
2022/11/29 02:30:38;;;;;;;;;;;16.00;91.00;;;;;;5086180;28;20127;-94
2022/11/29 02:33:07;;;;;;;;;;;16.00;91.30;;;;;;5109569;28;19934;-94
2022/11/29 02:35:54;;;;;;;;;;;16.00;91.10;;;;;;5107014;28;19947;-94
2022/11/29 02:38:44;;;;;;;;;;;16.10;91.10;;;;;;5092795;28;20309;-94
2022/11/29 02:41:29;;;;;;;;;;;16.10;91.20;;;;;;5090466;28;20175;-94
2022/11/29 02:44:23;;;;;;;;;;;16.10;91.20;;;;;;5089629;28;19908;-93
2022/11/29 02:46:54;;;;;;;;;;;16.00;91.20;;;;;;5086549;28;19908;-93
2022/11/29 02:49:38;;;;;;;;;;;16.00;91.20;;;;;;5103013;28;19951;-93
2022/11/29 02:52:10;;;;;;;;;;;16.00;91.20;;;;;;5102972;28;20461;-93
2022/11/29 02:54:58;;;;;;;;;;;16.10;91.20;;;;;;5084421;28;20182;-93
2022/11/29 02:57:25;;;;;;;;;;;16.00;91.20;;;;;;5085317;28;19937;-93
2022/11/29 03:00:05;;;;;;;;;;;16.00;91.20;;;;;;5099501;28;19908;-93
2022/11/29 03:02:50;;;;;;;;;;;16.00;91.20;;;;;;5082672;28;19912;-93
2022/11/29 03:05:31;;;;;;;;;;;16.00;91.30;;;;;;5082571;28;20002;-93
2022/11/29 03:08:15;;;;;;;;;;;16.10;91.30;;;;;;5082755;28;19908;-93
2022/11/29 03:10:47;;;;;;;;;;;16.10;91.30;;;;;;5085817;28;20200;-93
2022/11/29 03:13:42;;;;;;;;;;;16.00;91.30;;;;;;5097898;28;19985;-94
2022/11/29 03:16:26;;;;;;;;;;;16.00;91.40;;;;;;5045227;28;19909;-93
2022/11/29 03:19:10;;;;;;;;;;;16.00;91.40;;;;;;5085081;28;19912;-94
2022/11/29 03:21:47;;;;;;;;;;;16.00;91.40;;;;;;5086175;28;19912;-93
2022/11/29 03:24:17;;;;;;;;;;;16.10;91.40;;;;;;5079565;28;19908;-93
2022/11/29 03:26:56;;;;;;;;;;;16.00;91.40;;;;;;5082647;28;20015;-93
2022/11/29 03:29:26;;;;;;;;;;;16.00;91.40;;;;;;5082142;28;19915;-93
2022/11/29 03:32:11;;;;;;;;;;;16.10;91.50;;;;;;5084875;28;20006;-93
2022/11/29 03:34:55;;;;;;;;;;;16.00;91.40;;;;;;5086840;28;20162;-93
2022/11/29 03:37:40;;;;;;;;;;;16.00;91.40;;;;;;5086693;28;19924;-93
2022/11/29 03:40:19;;;;;;;;;;;16.00;91.40;;;;;;5086196;28;19907;-94
2022/11/29 03:42:50;;;;;;;;;;;16.10;91.50;;;;;;5084686;28;19923;-93
2022/11/29 03:45:22;;;;;;;;;;;16.00;91.50;;;;;;5085941;28;19908;-93
2022/11/29 03:47:55;;;;;;;;;;;16.10;91.50;;;;;;5102600;28;19912;-93
2022/11/29 03:50:59;;;;;;;;;;;16.10;91.60;;;;;;5084290;28;20155;-93
2022/11/29 03:53:54;;;;;;;;;;;16.00;91.50;;;;;;5040106;28;20192;-93
2022/11/29 03:56:36;;;;;;;;;;;16.00;91.60;;;;;;5016021;28;19909;-94
2022/11/29 03:59:21;;;;;;;;;;;16.00;91.60;;;;;;5073290;28;19916;-94
2022/11/29 04:01:52;;;;;;;;;;;16.00;91.60;;;;;;5091416;28;20250;-94
2022/11/29 04:04:27;;;;;;;;;;;16.00;91.70;;;;;;5111107;28;19919;-94
2022/11/29 04:06:59;;;;;;;;;;;16.00;91.70;;;;;;5109961;28;19943;-94
2022/11/29 04:09:30;;;;;;;;;;;16.00;91.80;;;;;;5113643;28;19913;-94
2022/11/29 04:12:03;;;;;;;;;;;16.00;91.80;;;;;;5111775;28;19912;-94
2022/11/29 04:14:35;;;;;;;;;;;15.90;91.90;;;;;;5094170;28;19908;-94
2022/11/29 04:17:00;;;;;;;;;;;16.00;91.90;;;;;;5113136;28;19909;-94
2022/11/29 04:19:32;;;;;;;;;;;15.90;91.90;;;;;;5113189;28;19908;-94
2022/11/29 04:22:27;;;;;;;;;;;15.90;92.00;;;;;;5109931;28;19905;-94
2022/11/29 04:25:14;;;;;;;;;;;16.20;91.60;;;;;;5094508;28;19906;-94
2022/11/29 04:28:03;;;;;;;;;;;17.10;88.30;;;;;;5088228;28;19938;-93
2022/11/29 04:30:33;;;;;;;;;;;17.80;82.90;;;;;;5075588;28;19912;-93
2022/11/29 04:33:06;;;;;;;;;;;18.20;80.20;;;;;;5080814;28;19908;-93
2022/11/29 04:35:50;;;;;;;;;;;18.40;78.50;;;;;;5105541;28;19916;-94
2022/11/29 04:38:16;;;;;;;;;;;18.50;77.60;;;;;;5089305;28;19916;-93
2022/11/29 04:40:44;;;;;;;;;;;18.60;76.60;;;;;;5104998;28;19908;-93
2022/11/29 04:43:19;;;;;;;;;;;18.80;75.80;;;;;;5107262;28;19923;-93
2022/11/29 04:46:06;;;;;;;;;;;18.90;75.10;;;;;;5107118;28;19912;-94
2022/11/29 04:48:54;;;;;;;;;;;18.90;74.60;;;;;;5089336;28;19943;-94
2022/11/29 04:51:38;;;;;;;;;;;18.90;74.20;;;;;;5094970;28;19908;-94
2022/11/29 04:54:07;;;;;;;;;;;18.90;74.10;;;;;;5091114;28;19939;-93
2022/11/29 04:56:48;;;;;;;;;;;18.90;74.20;;;;;;5110009;28;19909;-94
2022/11/29 04:59:18;;;;;;;;;;;18.90;74.50;;;;;;5091965;28;19921;-93
2022/11/29 05:01:43;;;;;;;;;;;18.80;74.80;;;;;;5095185;28;20281;-94
2022/11/29 05:04:14;;;;;;;;;;;18.70;75.10;;;;;;5111920;28;19934;-94
2022/11/29 05:07:00;;;;;;;;;;;18.70;75.60;;;;;;5092470;28;19940;-94
2022/11/29 05:09:44;;;;;;;;;;;18.60;76.10;;;;;;5092845;28;19934;-94
2022/11/29 05:12:29;;;;;;;;;;;18.50;76.60;;;;;;5091009;28;19984;-94
2022/11/29 05:15:08;;;;;;;;;;;18.40;77.20;;;;;;5087789;28;19908;-94
2022/11/29 05:17:41;;;;;;;;;;;18.40;78.00;;;;;;5092017;28;19912;-94
2022/11/29 05:20:22;;;;;;;;;;;18.30;78.60;;;;;;5095405;28;19918;-94
2022/11/29 05:23:10;;;;;;;;;;;18.20;79.10;;;;;;5113279;28;19916;-94
2022/11/29 05:25:38;;;;;;;;;;;18.10;79.80;;;;;;5099577;28;19934;-94
2022/11/29 05:28:19;;;;;;;;;;;18.00;80.50;;;;;;5117318;28;19912;-94
2022/11/29 05:30:54;;;;;;;;;;;17.90;81.00;;;;;;5097316;28;20179;-94
2022/11/29 05:33:19;;;;;;;;;;;17.80;81.70;;;;;;5116047;28;19999;-94
2022/11/29 05:35:51;;;;;;;;;;;17.80;82.30;;;;;;5115169;28;20071;-94
2022/11/29 05:38:32;;;;;;;;;;;17.70;82.80;;;;;;5113633;28;19896;-94
2022/11/29 05:41:03;;;;;;;;;;;17.60;83.40;;;;;;5115091;28;19919;-94
2022/11/29 05:46:48;;;;;;;;;;;17.50;84.50;;;;;;5116163;28;19930;-94
2022/11/29 05:49:23;;;;;;;;;;;17.40;85.20;;;;;;5098441;28;19908;-94
2022/11/29 05:52:10;;;;;;;;;;;17.30;85.80;;;;;;5096851;28;19919;-94
2022/11/29 05:54:43;;;;;;;;;;;17.30;86.30;;;;;;5112883;28;19980;-94
2022/11/29 05:57:44;;;;;;;;;;;17.20;86.70;;;;;;5098809;28;19923;-94
2022/11/29 06:03:18;;;;;;;;;;;17.10;87.60;;;;;;5120188;27;19918;-94
2022/11/29 06:05:53;;;;;;;;;;;17.10;88.20;;;;;;5102360;28;19909;-95
2022/11/29 06:08:24;;;;;;;;;;;17.00;88.60;;;;;;5102594;28;20013;-94
2022/11/29 06:11:03;;;;;;;;;;;17.00;89.00;;;;;;5102520;28;19908;-94
2022/11/29 06:13:48;;;;;;;;;;;16.90;89.30;;;;;;5102462;27;20034;-94
2022/11/29 06:16:33;;;;;;;;;;;16.90;89.70;;;;;;5118924;28;19912;-95
2022/11/29 06:19:17;;;;;;;;;;;16.80;90.00;;;;;;5103151;28;19983;-94
2022/11/29 06:22:04;;;;;;;;;;;16.80;90.10;;;;;;5101027;28;19920;-94
2022/11/29 06:24:29;;;;;;;;;;;16.80;90.30;;;;;;5102045;28;19958;-94
2022/11/29 06:27:02;;;;;;;;;;;16.70;90.40;;;;;;5116950;28;20278;-94
2022/11/29 06:29:37;;;;;;;;;;;16.70;90.50;;;;;;5114061;28;19908;-94
2022/11/29 06:32:15;;;;;;;;;;;16.70;90.60;;;;;;5096008;28;19908;-94
2022/11/29 06:34:46;;;;;;;;;;;16.70;90.70;;;;;;5094412;28;19908;-94
2022/11/29 06:37:21;;;;;;;;;;;16.60;90.80;;;;;;5097671;28;19930;-94
2022/11/29 06:39:57;;;;;;;;;;;16.60;90.90;;;;;;5113290;28;19908;-94
2022/11/29 06:42:23;;;;;;;;;;;16.50;91.00;;;;;;5097208;28;19992;-94
2022/11/29 06:44:48;;;;;;;;;;;16.50;91.10;;;;;;5097793;28;19923;-94
2022/11/29 06:47:28;;;;;;;;;;;16.50;91.10;;;;;;5097665;28;19912;-94
2022/11/29 06:50:18;;;;;;;;;;;16.50;91.20;;;;;;5098298;28;19896;-95
2022/11/29 06:52:49;;;;;;;;;;;16.50;91.30;;;;;;5092863;28;19918;-94
2022/11/29 06:55:17;;;;;;;;;;;16.40;91.30;;;;;;5097524;28;19967;-94
2022/11/29 06:57:57;;;;;;;;;;;16.40;91.40;;;;;;5112196;28;19919;-94
2022/11/29 07:00:25;;;;;;;;;;;16.40;91.50;;;;;;5095483;28;19908;-94
2022/11/29 07:03:10;;;;;;;;;;;16.40;91.50;;;;;;5094429;28;19983;-94
2022/11/29 07:05:36;;;;;;;;;;;16.40;91.60;;;;;;5094615;28;19916;-94
2022/11/29 07:08:04;;;;;;;;;;;16.40;91.70;;;;;;5096089;28;19896;-94
2022/11/29 07:10:34;;;;;;;;;;;16.30;91.70;;;;;;5094316;28;19908;-94
2022/11/29 07:13:02;;;;;;;;;;;16.30;91.70;;;;;;5094724;28;19908;-94
2022/11/29 07:15:28;;;;;;;;;;;16.40;91.80;;;;;;5093837;28;19951;-94
2022/11/29 07:18:00;;;;;;;;;;;16.30;91.90;;;;;;5093470;28;19919;-94
2022/11/29 07:20:28;;;;;;;;;;;16.30;91.90;;;;;;5111381;28;19908;-94
2022/11/29 07:23:01;;;;;;;;;;;16.30;91.90;;;;;;5112822;28;20175;-95
2022/11/29 07:25:46;;;;;;;;;;;16.30;92.00;;;;;;5097699;28;19908;-95
2022/11/29 07:28:11;;;;;;;;;;;16.30;92.00;;;;;;5093922;28;19972;-94
2022/11/29 07:30:58;;;;;;;;;;;16.30;92.00;;;;;;5111612;28;19919;-94
2022/11/29 07:33:43;;;;;;;;;;;16.30;92.10;;;;;;5093608;28;19908;-94
2022/11/29 07:36:30;;;;;;;;;;;16.30;92.10;;;;;;5085079;28;19931;-94
2022/11/29 07:39:15;;;;;;;;;;;16.30;92.10;;;;;;5094781;28;19919;-94
2022/11/29 07:41:56;;;;;;;;;;;16.30;92.10;;;;;;5095213;28;19948;-95
2022/11/29 07:44:31;;;;;;;;;;;16.30;92.20;;;;;;5094844;28;19930;-94
2022/11/29 07:47:04;;;;;;;;;;;16.30;92.20;;;;;;5113327;28;19904;-95
2022/11/29 07:49:30;;;;;;;;;;;16.30;92.30;;;;;;5095519;28;19911;-94
2022/11/29 07:51:56;;;;;;;;;;;16.30;92.40;;;;;;5096195;28;19916;-94
2022/11/29 07:54:30;;;;;;;;;;;16.30;92.50;;;;;;5096599;28;19896;-94
2022/11/29 07:56:55;;;;;;;;;;;16.30;92.50;;;;;;5092965;28;19912;-94
2022/11/29 07:59:21;;;;;;;;;;;16.30;92.50;;;;;;5092551;28;19908;-94
2022/11/29 08:01:46;;;;;;;;;;;16.40;92.60;;;;;;5082275;28;19920;-94
2022/11/29 08:04:15;;;;;;;;;;;16.40;92.90;;;;;;5082533;28;19908;-94
2022/11/29 08:06:43;;;;;;;;;;;16.40;92.60;;;;;;5078358;28;19909;-93
2022/11/29 08:09:11;;;;;;;;;;;16.40;92.60;;;;;;5083205;28;19975;-94
2022/11/29 08:11:37;;;;;;;;;;;16.50;92.60;;;;;;5082761;28;19908;-94
2022/11/29 08:14:04;;;;;;;;;;;16.50;92.50;;;;;;5079726;28;19908;-94
2022/11/29 08:16:29;;;;;;;;;;;16.50;92.50;;;;;;5081675;28;19918;-93
2022/11/29 08:18:55;;;;;;;;;;;16.50;92.50;;;;;;5085351;28;19936;-94
2022/11/29 08:21:21;;;;;;;;;;;16.60;92.40;;;;;;5085826;28;19908;-94
2022/11/29 08:23:50;;;;;;;;;;;16.60;92.30;;;;;;5086031;28;19999;-94
2022/11/29 08:26:19;;;;;;;;;;;16.70;92.20;;;;;;5088634;28;19908;-94
2022/11/29 08:28:50;;;;;;;;;;;16.70;92.00;;;;;;5105873;28;20088;-94
2022/11/29 08:31:34;;;;;;;;;;;16.70;91.90;;;;;;5087184;28;19919;-94
2022/11/29 08:33:59;;;;;;;;;;;16.70;91.80;;;;;;5087389;28;19909;-94
2022/11/29 08:36:25;;;;;;;;;;;16.80;91.80;;;;;;5086920;28;19999;-94
2022/11/29 08:38:50;;;;;;;;;;;16.80;91.80;;;;;;5090397;28;19908;-94
2022/11/29 08:41:16;;;;;;;;;;;16.80;91.80;;;;;;5091676;28;19957;-94
2022/11/29 08:43:42;;;;;;;;;;;16.80;91.80;;;;;;5082480;28;19908;-94
2022/11/29 08:46:08;;;;;;;;;;;16.80;91.80;;;;;;5086551;28;19908;-93
2022/11/29 08:48:34;;;;;;;;;;;16.80;91.90;;;;;;5088485;28;19947;-94
2022/11/29 08:51:00;;;;;;;;;;;16.80;91.90;;;;;;5086203;28;19908;-94
2022/11/29 08:53:42;;;;;;;;;;;16.80;92.00;;;;;;5086799;28;19919;-94
2022/11/29 08:56:10;;;;;;;;;;;16.80;92.30;;;;;;5086026;28;19979;-94
2022/11/29 08:58:37;;;;;;;;;;;16.70;92.10;;;;;;5103764;28;19908;-94
2022/11/29 09:01:03;;;;;;;;;;;16.80;92.10;;;;;;5084482;28;20274;-94
2022/11/29 09:06:14;;;;;;;;;;;16.80;92.10;;;;;;5104580;28;20000;-94
2022/11/29 09:08:42;;;;;;;;;;;16.80;92.10;;;;;;5084525;28;19939;-94
2022/11/29 09:11:11;;;;;;;;;;;16.70;92.10;;;;;;5084286;28;19915;-94
2022/11/29 09:13:41;;;;;;;;;;;16.80;92.20;;;;;;5081421;28;19908;-94
2022/11/29 09:16:07;;;;;;;;;;;16.70;92.20;;;;;;5084700;28;19976;-94
2022/11/29 09:18:33;;;;;;;;;;;16.70;92.30;;;;;;5082788;28;20278;-93
2022/11/29 09:20:58;;;;;;;;;;;16.70;92.40;;;;;;5083360;28;19915;-94
2022/11/29 09:23:27;;;;;;;;;;;16.70;92.40;;;;;;5082721;28;19916;-94
2022/11/29 09:25:53;;;;;;;;;;;16.70;92.50;;;;;;5082262;28;19915;-94
2022/11/29 09:28:21;;;;;;;;;;;16.70;92.50;;;;;;5082504;28;19908;-94
2022/11/29 09:30:50;;;;;;;;;;;16.70;92.50;;;;;;5082796;28;19912;-94
2022/11/29 09:33:16;;;;;;;;;;;16.70;92.60;;;;;;5082946;28;20103;-94
2022/11/29 09:35:41;;;;;;;;;;;16.60;92.60;;;;;;5083377;28;19916;-94
2022/11/29 09:38:12;;;;;;;;;;;16.60;92.60;;;;;;5083986;28;19908;-94
2022/11/29 09:40:58;;;;;;;;;;;16.60;92.60;;;;;;5084256;28;19908;-94
2022/11/29 09:43:32;;;;;;;;;;;16.60;92.70;;;;;;5064412;28;19979;-94
2022/11/29 09:46:01;;;;;;;;;;;16.60;92.70;;;;;;5083603;28;20003;-93
2022/11/29 09:48:42;;;;;;;;;;;16.60;92.80;;;;;;5082446;28;19993;-94
2022/11/29 09:51:24;;;;;;;;;;;16.60;92.80;;;;;;5098782;28;19918;-94
2022/11/29 09:54:09;;;;;;;;;;;16.60;92.80;;;;;;5084332;28;19919;-94
2022/11/29 09:56:43;;;;;;;;;;;16.60;92.80;;;;;;5082290;28;19935;-94
2022/11/29 09:59:15;;;;;;;;;;;16.60;92.90;;;;;;5084142;28;19939;-94
2022/11/29 10:01:56;;;;;;;;;;;16.60;92.90;;;;;;5055782;28;20246;-93
2022/11/29 10:04:40;;;;;;;;;;;16.60;93.00;;;;;;5097725;28;19908;-94
2022/11/29 10:13:15;;;;;;;;;;;16.60;93.10;;;;;;5099574;28;19930;-94
2022/11/29 10:15:43;;;;;;;;;;;16.60;93.20;;;;;;5100874;28;19947;-94
2022/11/29 10:18:15;;;;;;;;;;;16.60;93.20;;;;;;5084443;28;19908;-94
2022/11/29 10:20:42;;;;;;;;;;;16.60;93.20;;;;;;5084130;28;19997;-94
2022/11/29 10:23:20;;;;;;;;;;;16.60;93.10;;;;;;5083586;28;19930;-94
2022/11/29 10:25:50;;;;;;;;;;;16.60;93.30;;;;;;5099084;28;19916;-94
2022/11/29 10:28:17;;;;;;;;;;;16.70;95.90;;;;;;5079393;28;19918;-94
2022/11/29 10:30:43;;;;;;;;;;;16.70;95.80;;;;;;5081141;28;19908;-94
2022/11/29 10:33:28;;;;;;;;;;;16.80;98.90;;;;;;5081443;28;19976;-94
2022/11/29 10:36:17;;;;;;;;;;;16.80;98.70;;;;;;5082398;28;19916;-94
2022/11/29 10:38:46;;;;;;;;;;;16.80;97.90;;;;;;5078088;28;19923;-94
2022/11/29 10:41:16;;;;;;;;;;;16.80;97.60;;;;;;5082401;28;19908;-94
2022/11/29 10:43:42;;;;;;;;;;;16.80;97.30;;;;;;5084092;28;19915;-94
2022/11/29 10:46:26;;;;;;;;;;;16.90;97.20;;;;;;5082069;28;19908;-94
2022/11/29 10:48:58;;;;;;;;;;;16.90;96.90;;;;;;5081027;28;19908;-93
2022/11/29 10:51:24;;;;;;;;;;;16.90;96.70;;;;;;5081813;28;19909;-94
2022/11/29 10:53:51;;;;;;;;;;;16.90;96.50;;;;;;5084511;28;19908;-94
2022/11/29 10:56:29;;;;;;;;;;;16.90;96.30;;;;;;5084147;28;20308;-94
2022/11/29 10:58:55;;;;;;;;;;;16.90;96.20;;;;;;5087649;28;19912;-94
2022/11/29 11:01:25;;;;;;;;;;;16.90;96.00;;;;;;5101689;28;19908;-94
2022/11/29 11:03:57;;;;;;;;;;;16.90;95.90;;;;;;5084282;28;19908;-94
2022/11/29 11:06:42;;;;;;;;;;;16.90;95.70;;;;;;5084304;28;19938;-94
2022/11/29 11:09:31;;;;;;;;;;;17.00;95.70;;;;;;5084370;28;19912;-94
2022/11/29 11:11:57;;;;;;;;;;;16.90;95.60;;;;;;5077801;28;19940;-94
2022/11/29 11:14:24;;;;;;;;;;;16.90;95.50;;;;;;5083795;28;20152;-94
2022/11/29 11:16:50;;;;;;;;;;;16.90;95.50;;;;;;5085075;28;19908;-94
2022/11/29 11:19:27;;;;;;;;;;;16.90;95.40;;;;;;5081615;28;20100;-94
2022/11/29 11:21:56;;;;;;;;;;;16.90;95.40;;;;;;5081096;28;20136;-94
2022/11/29 11:24:38;;;;;;;;;;;16.90;95.40;;;;;;5082886;28;20146;-94
2022/11/29 11:27:04;;;;;;;;;;;16.90;95.50;;;;;;5083116;28;19991;-94
2022/11/29 11:29:41;;;;;;;;;;;16.90;95.50;;;;;;5083802;28;19984;-94
2022/11/29 11:32:14;;;;;;;;;;;16.90;95.50;;;;;;5083959;28;19997;-94
2022/11/29 11:34:49;;;;;;;;;;;16.90;95.50;;;;;;5078204;28;19915;-93
2022/11/29 11:37:14;;;;;;;;;;;16.90;95.50;;;;;;5083339;28;19916;-94
2022/11/29 11:39:44;;;;;;;;;;;16.90;95.50;;;;;;5099292;28;19915;-93
2022/11/29 11:42:36;;;;;;;;;;;16.90;95.50;;;;;;5084331;28;19983;-93
2022/11/29 11:45:03;;;;;;;;;;;16.90;95.50;;;;;;5084447;28;19951;-94
2022/11/29 11:47:31;;;;;;;;;;;16.90;95.40;;;;;;5081715;28;20289;-93
2022/11/29 11:50:02;;;;;;;;;;;16.90;95.50;;;;;;5080786;28;20221;-93
2022/11/29 11:52:42;;;;;;;;;;;16.90;95.40;;;;;;5098908;28;20192;-94
2022/11/29 11:55:27;;;;;;;;;;;16.90;95.40;;;;;;5082415;28;20068;-94
2022/11/29 11:57:59;;;;;;;;;;;16.90;95.40;;;;;;5082764;28;19923;-94
2022/11/29 12:00:41;;;;;;;;;;;16.90;95.40;;;;;;5099216;28;19951;-93
2022/11/29 12:03:27;;;;;;;;;;;16.90;95.50;;;;;;5079565;28;19912;-93
2022/11/29 12:05:55;;;;;;;;;;;16.80;95.50;;;;;;5061050;28;19973;-94
2022/11/29 12:08:22;;;;;;;;;;;16.90;95.90;;;;;;5076543;28;19908;-93
2022/11/29 12:10:50;;;;;;;;;;;16.80;95.60;;;;;;5080088;28;19908;-94
2022/11/29 12:13:22;;;;;;;;;;;16.80;95.60;;;;;;5083431;28;19912;-94
2022/11/29 12:15:48;;;;;;;;;;;16.80;95.60;;;;;;5078800;28;19916;-94
2022/11/29 12:18:23;;;;;;;;;;;16.80;95.70;;;;;;5082593;28;19918;-93
2022/11/29 12:20:52;;;;;;;;;;;16.80;95.60;;;;;;5083649;28;19912;-94
2022/11/29 12:23:18;;;;;;;;;;;16.80;95.60;;;;;;5081027;28;19912;-93
2022/11/29 12:26:04;;;;;;;;;;;16.80;95.60;;;;;;5093802;28;20339;-94
2022/11/29 12:28:40;;;;;;;;;;;16.80;95.60;;;;;;5075476;28;20123;-94
2022/11/29 12:31:26;;;;;;;;;;;16.80;95.70;;;;;;5077732;28;19908;-94
2022/11/29 12:33:59;;;;;;;;;;;16.80;95.70;;;;;;5075226;28;20278;-94
2022/11/29 12:36:31;;;;;;;;;;;16.70;95.60;;;;;;5069518;28;20057;-93
2022/11/29 12:39:01;;;;;;;;;;;16.70;95.70;;;;;;5070469;28;19908;-93
2022/11/29 12:41:51;;;;;;;;;;;16.70;95.70;;;;;;5068377;28;19912;-93
2022/11/29 12:44:21;;;;;;;;;;;16.70;95.70;;;;;;5069385;28;19916;-93
2022/11/29 12:46:50;;;;;;;;;;;16.70;95.80;;;;;;5069741;28;19978;-93
2022/11/29 12:49:40;;;;;;;;;;;16.60;95.80;;;;;;5071574;28;19912;-93
2022/11/29 12:52:11;;;;;;;;;;;16.60;95.80;;;;;;5051723;28;19908;-93
2022/11/29 12:54:37;;;;;;;;;;;16.70;95.90;;;;;;5075976;28;19908;-93
2022/11/29 12:57:25;;;;;;;;;;;16.60;95.90;;;;;;5090789;28;20163;-93
2022/11/29 12:59:59;;;;;;;;;;;16.60;96.00;;;;;;5069623;28;19982;-94
2022/11/29 13:02:40;;;;;;;;;;;16.60;96.00;;;;;;5072550;28;19912;-94
2022/11/29 13:05:21;;;;;;;;;;;16.60;96.10;;;;;;5086632;28;20198;-93
2022/11/29 13:14:02;;;;;;;;;;;16.60;96.00;;;;;;5091606;28;19943;-93
2022/11/29 13:16:28;;;;;;;;;;;16.60;96.10;;;;;;5093913;28;19972;-93
2022/11/29 13:19:03;;;;;;;;;;;16.60;96.10;;;;;;5098112;28;19998;-93
2022/11/29 13:21:38;;;;;;;;;;;16.60;96.20;;;;;;5093317;28;19908;-93
2022/11/29 13:24:06;;;;;;;;;;;16.60;96.10;;;;;;5075252;28;19916;-93
2022/11/29 13:26:35;;;;;;;;;;;16.60;96.10;;;;;;5091656;28;20163;-93
2022/11/29 13:29:02;;;;;;;;;;;16.70;96.30;;;;;;5076196;28;19912;-93
2022/11/29 13:31:28;;;;;;;;;;;16.70;96.10;;;;;;5077495;28;20262;-93
2022/11/29 13:34:06;;;;;;;;;;;16.70;96.10;;;;;;5074322;28;20278;-93
2022/11/29 13:36:50;;;;;;;;;;;16.70;96.00;;;;;;5073077;28;20012;-93
2022/11/29 13:39:22;;;;;;;;;;;16.70;96.00;;;;;;5071681;28;20144;-93
2022/11/29 13:41:58;;;;;;;;;;;16.70;96.00;;;;;;5089433;28;20240;-93
2022/11/29 13:44:39;;;;;;;;;;;16.70;96.00;;;;;;5071931;28;20282;-93
2022/11/29 13:47:07;;;;;;;;;;;16.70;96.00;;;;;;5088953;28;19908;-93
2022/11/29 13:49:48;;;;;;;;;;;16.70;96.00;;;;;;5072528;28;19908;-93
2022/11/29 13:52:32;;;;;;;;;;;16.70;96.00;;;;;;5090190;28;20018;-93
2022/11/29 13:55:13;;;;;;;;;;;16.70;96.00;;;;;;5072906;28;19908;-93
2022/11/29 13:58:02;;;;;;;;;;;16.70;96.00;;;;;;5093409;28;20081;-93
2022/11/29 14:00:36;;;;;;;;;;;16.70;96.10;;;;;;5076917;28;19919;-93
2022/11/29 14:03:28;;;;;;;;;;;16.70;96.10;;;;;;5075726;28;19935;-93
2022/11/29 14:06:12;;;;;;;;;;;16.70;96.20;;;;;;5072671;28;19919;-93
2022/11/29 14:08:42;;;;;;;;;;;16.70;96.20;;;;;;5076331;28;19912;-93
2022/11/29 14:11:17;;;;;;;;;;;16.70;96.20;;;;;;5075025;28;19908;-93
2022/11/29 14:14:03;;;;;;;;;;;16.70;96.20;;;;;;5075415;28;19908;-93
2022/11/29 14:16:28;;;;;;;;;;;16.70;96.20;;;;;;5075098;28;19966;-93
2022/11/29 14:19:19;;;;;;;;;;;16.70;96.20;;;;;;5089871;28;19944;-93
2022/11/29 14:22:05;;;;;;;;;;;16.70;96.30;;;;;;5071064;28;19912;-93
2022/11/29 14:24:31;;;;;;;;;;;16.70;96.30;;;;;;5089396;28;19948;-93
2022/11/29 14:27:17;;;;;;;;;;;16.80;96.20;;;;;;5087284;28;19936;-93
2022/11/29 14:29:49;;;;;;;;;;;16.80;96.20;;;;;;5073602;28;19915;-93
2022/11/29 14:32:34;;;;;;;;;;;16.80;96.10;;;;;;5090603;28;19908;-93
2022/11/29 14:35:19;;;;;;;;;;;16.90;95.90;;;;;;5064038;28;19989;-93
2022/11/29 14:37:51;;;;;;;;;;;16.90;95.80;;;;;;5072755;28;19908;-93
2022/11/29 14:40:26;;;;;;;;;;;17.00;95.70;;;;;;5071779;28;20088;-93
2022/11/29 14:42:52;;;;;;;;;;;17.00;95.60;;;;;;5087831;28;19934;-93
2022/11/29 14:45:26;;;;;;;;;;;17.00;95.60;;;;;;5072604;28;19979;-93
2022/11/29 14:47:51;;;;;;;;;;;17.00;95.60;;;;;;5069464;28;19947;-93
2022/11/29 14:50:29;;;;;;;;;;;17.00;95.50;;;;;;5071197;28;19943;-93
2022/11/29 14:52:58;;;;;;;;;;;17.00;95.50;;;;;;5072964;28;19908;-93
2022/11/29 14:55:24;;;;;;;;;;;17.00;95.60;;;;;;5072434;28;19952;-93
2022/11/29 14:57:49;;;;;;;;;;;17.00;95.60;;;;;;5089500;28;20362;-93
2022/11/29 15:00:29;;;;;;;;;;;16.90;95.60;;;;;;5090588;28;19908;-93
2022/11/29 15:02:54;;;;;;;;;;;16.90;95.70;;;;;;5070585;28;20114;-93
2022/11/29 15:05:23;;;;;;;;;;;16.90;95.80;;;;;;5088087;28;19916;-93
2022/11/29 15:08:02;;;;;;;;;;;16.90;95.90;;;;;;5071819;28;19919;-93
2022/11/29 15:10:33;;;;;;;;;;;16.80;95.90;;;;;;5072319;28;19943;-93
2022/11/29 15:12:59;;;;;;;;;;;16.80;96.00;;;;;;5072875;28;20244;-93
2022/11/29 15:15:27;;;;;;;;;;;16.80;96.10;;;;;;5072133;28;19963;-93
2022/11/29 15:17:57;;;;;;;;;;;16.80;96.10;;;;;;5088796;28;20076;-94
2022/11/29 15:20:42;;;;;;;;;;;16.70;96.10;;;;;;5072244;28;20247;-93
2022/11/29 15:23:10;;;;;;;;;;;16.70;96.20;;;;;;5071344;28;20026;-93
2022/11/29 15:25:44;;;;;;;;;;;16.70;96.20;;;;;;5069508;28;19908;-93
2022/11/29 15:28:18;;;;;;;;;;;16.70;96.30;;;;;;5071017;28;20220;-93